createdAt,value
2023-04-03T00:01:48.763Z,3.42
2023-04-03T00:04:24.769Z,3.80
2023-04-03T00:06:53.337Z,4.50
2023-04-03T00:09:21.455Z,3.97
2023-04-03T00:11:49.299Z,4.10
2023-04-03T00:14:17.228Z,4.38
2023-04-03T00:16:45.414Z,4.22
2023-04-03T00:19:16.789Z,4.20
2023-04-03T00:21:44.843Z,5.47
2023-04-03T00:24:13.262Z,5.32
2023-04-03T00:26:41.983Z,5.97
2023-04-03T00:29:10.159Z,6.78
2023-04-03T00:34:15.202Z,9.98
2023-04-03T00:36:43.870Z,9.38
2023-04-03T00:39:35.855Z,9.00
2023-04-03T00:42:04.427Z,8.75
2023-04-03T00:44:35.400Z,7.80
2023-04-03T00:47:07.463Z,8.10
2023-04-03T00:53:03.298Z,6.07
2023-04-03T00:55:31.912Z,6.32
2023-04-03T00:58:02.974Z,4.87
2023-04-03T01:00:32.618Z,5.05
2023-04-03T01:03:01.738Z,5.68
2023-04-03T01:10:53.026Z,6.13
2023-04-03T01:13:27.898Z,5.63
2023-04-03T01:15:57.417Z,6.30
2023-04-03T01:18:26.946Z,7.97
2023-04-03T01:20:58.291Z,8.45
2023-04-03T01:23:35.833Z,6.93
2023-04-03T01:28:44.624Z,5.70
2023-04-03T01:31:43.812Z,5.65
2023-04-03T01:34:13.272Z,4.78
2023-04-03T01:36:42.057Z,3.17
2023-04-03T01:39:10.631Z,4.28
2023-04-03T01:41:38.800Z,5.45
2023-04-03T01:44:07.129Z,4.55
2023-04-03T01:46:35.138Z,4.80
2023-04-03T01:49:35.166Z,4.73
2023-04-03T01:52:03.476Z,3.55
2023-04-03T01:54:31.246Z,4.50
2023-04-03T01:56:59.657Z,4.28
2023-04-03T02:05:14.066Z,4.25
2023-04-03T02:10:20.667Z,4.10
2023-04-03T02:15:52.895Z,3.83
2023-04-03T02:18:21.729Z,3.80
2023-04-03T02:20:49.557Z,4.30
2023-04-03T02:23:17.580Z,3.80
2023-04-03T02:25:45.450Z,4.60
2023-04-03T02:30:52.588Z,4.10
2023-04-03T02:33:20.495Z,4.93
2023-04-03T02:35:54.658Z,4.72
2023-04-03T02:38:22.370Z,4.07
2023-04-03T02:40:52.449Z,4.37
2023-04-03T02:43:20.300Z,3.65
2023-04-03T02:45:47.864Z,3.65
2023-04-03T02:50:54.583Z,4.60
2023-04-03T02:53:22.104Z,3.90
2023-04-03T02:55:50.194Z,4.00
2023-04-03T02:58:17.656Z,4.20
2023-04-03T03:00:45.093Z,3.83
2023-04-03T03:03:13.044Z,3.50
2023-04-03T03:08:17.556Z,3.55
2023-04-03T03:10:46.975Z,4.82
2023-04-03T03:13:14.885Z,3.85
2023-04-03T03:19:11.698Z,2.97
2023-04-03T03:21:39.098Z,3.65
2023-04-03T03:24:07.058Z,3.90
2023-04-03T03:26:35.315Z,3.85
2023-04-03T03:29:02.738Z,3.47
2023-04-03T03:31:30.586Z,3.80
2023-04-03T03:33:58.338Z,4.10
2023-04-03T03:36:26.730Z,3.90
2023-04-03T03:44:39.675Z,3.47
2023-04-03T03:49:46.197Z,4.18
2023-04-03T03:52:15.565Z,4.03
2023-04-03T03:54:44.459Z,3.90
2023-04-03T03:57:12.665Z,3.87
2023-04-03T03:59:43.135Z,3.75
2023-04-03T04:02:10.674Z,4.32
2023-04-03T04:07:30.501Z,4.95
2023-04-03T04:09:58.584Z,4.07
2023-04-03T04:12:26.542Z,3.95
2023-04-03T04:17:34.302Z,4.18
2023-04-03T04:20:19.256Z,5.20
2023-04-03T04:28:23.701Z,5.80
2023-04-03T04:30:54.832Z,5.25
2023-04-03T04:33:22.397Z,6.25
2023-04-03T04:35:50.950Z,5.03
2023-04-03T04:38:19.173Z,6.13
2023-04-03T04:40:47.728Z,6.03
2023-04-03T04:46:35.186Z,6.57
2023-04-03T04:49:06.775Z,6.70
2023-04-03T04:51:48.357Z,6.82
2023-04-03T04:54:42.557Z,6.68
2023-04-03T04:57:10.306Z,6.72
2023-04-03T04:59:38.565Z,9.02
2023-04-03T05:02:07.970Z,8.07
2023-04-03T05:04:35.887Z,7.03
2023-04-03T05:13:32.536Z,8.52
2023-04-03T05:16:00.987Z,6.67
2023-04-03T05:18:28.820Z,6.93
2023-04-03T05:23:38.214Z,7.20
2023-04-03T05:26:06.359Z,7.10
2023-04-03T05:28:34.634Z,6.80
2023-04-03T05:31:02.244Z,8.48
2023-04-03T05:33:30.154Z,8.82
2023-04-03T05:35:57.686Z,8.82
2023-04-03T05:38:25.346Z,7.15
2023-04-03T05:40:53.094Z,6.63
2023-04-03T05:43:20.696Z,6.30
2023-04-03T05:45:50.085Z,6.60
2023-04-03T05:48:19.788Z,6.85
2023-04-03T05:53:27.794Z,6.57
2023-04-03T05:58:53.147Z,8.93
2023-04-03T06:01:20.792Z,7.70
2023-04-03T06:03:49.509Z,7.53
2023-04-03T06:06:17.994Z,5.77
2023-04-03T06:12:09.540Z,4.97
2023-04-03T06:14:38.076Z,6.30
2023-04-03T06:17:07.807Z,5.72
2023-04-03T06:19:42.371Z,4.90
2023-04-03T06:22:13.804Z,6.43
2023-04-03T06:27:36.035Z,6.13
2023-04-03T06:33:47.146Z,6.53
2023-04-03T06:36:16.352Z,5.75
2023-04-03T06:38:48.000Z,7.63
2023-04-03T06:47:26.948Z,5.65
2023-04-03T07:03:25.248Z,4.87
2023-04-03T07:15:40.406Z,5.40
2023-04-03T08:35:11.316Z,3.70
2023-04-03T08:40:42.704Z,3.97
2023-04-03T08:43:46.198Z,4.15
2023-04-03T08:46:18.982Z,3.42
2023-04-03T08:48:48.009Z,3.33
2023-04-03T08:51:19.598Z,2.55
2023-04-03T08:54:35.326Z,3.70
2023-04-03T08:57:10.926Z,3.30
2023-04-03T08:59:40.925Z,3.97
2023-04-03T09:07:52.291Z,3.07
2023-04-03T09:10:29.451Z,3.13
2023-04-03T09:13:07.744Z,3.00
2023-04-03T09:19:02.446Z,3.17
2023-04-03T09:21:37.041Z,2.53
2023-04-03T09:30:50.421Z,2.70
2023-04-03T09:36:51.926Z,2.80
2023-04-03T09:39:36.144Z,2.72
2023-04-03T09:45:36.903Z,3.13
2023-04-03T09:48:23.283Z,3.10
2023-04-03T09:51:00.025Z,2.63
2023-04-03T10:00:05.372Z,2.92
2023-04-03T11:24:38.216Z,2.65
2023-04-03T12:49:59.878Z,2.45
2023-04-03T12:56:05.997Z,2.72
2023-04-03T13:12:55.593Z,3.00
2023-04-03T13:30:10.400Z,2.40
2023-04-03T13:35:50.605Z,2.45
2023-04-03T14:23:50.392Z,3.03
2023-04-03T18:18:03.439Z,2.80
2023-04-03T18:23:15.153Z,2.25
2023-04-03T18:32:25.879Z,3.08
2023-04-03T18:34:53.712Z,2.83
2023-04-03T23:28:29.435Z,2.35
